createdAt,value
2023-04-10T00:00:16.778Z,96745.72
2023-04-10T00:02:49.640Z,96744.13
2023-04-10T00:05:22.602Z,96743.63
2023-04-10T00:07:55.286Z,96735.16
2023-04-10T00:10:30.484Z,96730.94
2023-04-10T00:13:04.745Z,96739.16
2023-04-10T00:15:38.797Z,96737.88
2023-04-10T00:18:11.642Z,96741.06
2023-04-10T00:20:44.355Z,96740.56
2023-04-10T00:23:17.054Z,96742.69
2023-04-10T00:25:49.959Z,96732.38
2023-04-10T00:28:22.639Z,96726.84
2023-04-10T00:30:56.791Z,96727.41
2023-04-10T00:33:29.546Z,96721.31
2023-04-10T00:36:02.193Z,96720.03
2023-04-10T00:38:35.385Z,96721.34
2023-04-10T00:41:08.283Z,96709.47
2023-04-10T00:43:41.150Z,96724.84
2023-04-10T00:46:15.353Z,96725.13
2023-04-10T00:48:48.470Z,96720.91
2023-04-10T00:51:21.692Z,96722.75
2023-04-10T00:53:55.150Z,96714.59
2023-04-10T00:56:28.216Z,96719.63
2023-04-10T00:59:04.052Z,96723.34
2023-04-10T01:01:39.570Z,96720.50
2023-04-10T01:04:13.230Z,96715.47
2023-04-10T01:06:54.036Z,96710.72
2023-04-10T01:09:34.173Z,96718.13
2023-04-10T01:12:12.809Z,96722.94
2023-04-10T01:14:50.486Z,96712.91
2023-04-10T01:17:29.724Z,96719.25
2023-04-10T01:20:05.653Z,96724.28
2023-04-10T01:22:42.923Z,96726.94
2023-04-10T01:25:31.428Z,96730.44
2023-04-10T01:28:09.328Z,96731.50
2023-04-10T01:30:44.921Z,96731.75
2023-04-10T01:33:19.064Z,96714.88
2023-04-10T01:35:53.630Z,96714.09
2023-04-10T01:38:27.777Z,96718.34
2023-04-10T01:41:01.536Z,96715.69
2023-04-10T01:43:34.845Z,96723.63
2023-04-10T01:46:09.274Z,96728.97
2023-04-10T01:48:42.736Z,96722.88
2023-04-10T01:51:16.167Z,96719.72
2023-04-10T01:53:49.227Z,96713.91
2023-04-10T01:56:22.019Z,96717.13
2023-04-10T01:58:54.840Z,96714.22
2023-04-10T02:01:30.265Z,96719.78
2023-04-10T02:04:03.369Z,96719.28
2023-04-10T02:06:42.377Z,96724.84
2023-04-10T02:09:19.956Z,96719.28
2023-04-10T02:11:55.885Z,96721.16
2023-04-10T02:14:29.576Z,96724.34
2023-04-10T02:17:03.912Z,96726.47
2023-04-10T02:19:36.854Z,96722.53
2023-04-10T02:22:09.597Z,96723.34
2023-04-10T02:24:42.248Z,96719.13
2023-04-10T02:27:14.893Z,96722.81
2023-04-10T02:29:47.612Z,96717.28
2023-04-10T02:32:21.752Z,96714.16
2023-04-10T02:34:54.509Z,96718.91
2023-04-10T02:37:27.367Z,96718.38
2023-04-10T02:39:59.981Z,96716.28
2023-04-10T02:42:32.815Z,96720.28
2023-04-10T02:45:06.449Z,96726.09
2023-04-10T02:47:41.027Z,96729.00
2023-04-10T02:50:13.686Z,96724.78
2023-04-10T02:52:46.387Z,96733.75
2023-04-10T02:55:19.013Z,96738.56
2023-04-10T02:57:51.929Z,96732.22
2023-04-10T03:00:24.702Z,96729.56
2023-04-10T03:02:59.020Z,96736.69
2023-04-10T03:05:31.977Z,96729.34
2023-04-10T03:08:04.950Z,96732.75
2023-04-10T03:10:37.629Z,96727.22
2023-04-10T03:13:10.527Z,96738.31
2023-04-10T03:15:43.580Z,96734.09
2023-04-10T03:18:17.801Z,96730.38
2023-04-10T03:20:51.300Z,96727.22
2023-04-10T03:23:24.021Z,96727.22
2023-04-10T03:25:56.817Z,96723.00
2023-04-10T03:28:29.793Z,96728.81
2023-04-10T03:31:02.886Z,96727.50
2023-04-10T03:33:37.154Z,96730.94
2023-04-10T03:36:10.289Z,96726.69
2023-04-10T03:38:43.006Z,96724.84
2023-04-10T03:41:15.650Z,96714.53
2023-04-10T03:43:48.337Z,96720.63
2023-04-10T03:46:22.720Z,96712.94
2023-04-10T03:48:56.958Z,96723.81
2023-04-10T03:51:29.667Z,96704.53
2023-04-10T03:54:02.439Z,96708.72
2023-04-10T03:56:35.148Z,96715.59
2023-04-10T03:59:07.906Z,96707.66
2023-04-10T04:01:40.642Z,96720.88
2023-04-10T04:04:14.949Z,96707.66
2023-04-10T04:06:48.724Z,96719.03
2023-04-10T04:09:22.159Z,96718.78
2023-04-10T04:11:54.887Z,96712.69
2023-04-10T04:14:27.655Z,96715.06
2023-04-10T04:17:00.666Z,96711.38
2023-04-10T04:19:34.868Z,96706.09
2023-04-10T04:22:07.861Z,96707.13
2023-04-10T04:24:41.102Z,96712.16
2023-04-10T04:27:13.841Z,96709.25
2023-04-10T04:29:46.720Z,96711.91
2023-04-10T04:32:19.488Z,96708.47
2023-04-10T04:34:53.586Z,96711.59
2023-04-10T04:37:26.275Z,96712.69
2023-04-10T04:39:58.978Z,96716.38
2023-04-10T04:42:32.007Z,96714.53
2023-04-10T04:45:04.854Z,96710.03
2023-04-10T04:47:37.482Z,96709.75
2023-04-10T04:50:11.887Z,96712.69
2023-04-10T04:52:44.691Z,96718.19
2023-04-10T04:55:17.432Z,96718.19
2023-04-10T04:57:50.156Z,96722.44
2023-04-10T05:00:22.895Z,96720.31
2023-04-10T05:02:55.693Z,96727.19
2023-04-10T05:05:29.866Z,96729.56
2023-04-10T05:08:02.587Z,96735.34
2023-04-10T05:10:35.528Z,96729.00
2023-04-10T05:13:08.165Z,96727.91
2023-04-10T05:15:40.916Z,96723.72
2023-04-10T05:18:14.187Z,96733.44
2023-04-10T05:20:48.816Z,96739.00
2023-04-10T05:23:21.615Z,96744.25
2023-04-10T05:25:54.323Z,96748.22
2023-04-10T05:28:27.276Z,96744.72
2023-04-10T05:31:00.063Z,96742.34
2023-04-10T05:33:32.790Z,96737.81
2023-04-10T05:36:08.044Z,96739.88
2023-04-10T05:38:40.715Z,96742.22
2023-04-10T05:41:13.434Z,96744.00
2023-04-10T05:43:46.078Z,96746.06
2023-04-10T05:46:19.332Z,96748.88
2023-04-10T05:48:52.410Z,96739.81
2023-04-10T05:51:27.248Z,96741.25
2023-04-10T05:53:59.897Z,96738.75
2023-04-10T05:56:32.791Z,96747.06
2023-04-10T05:59:06.566Z,96737.91
2023-04-10T06:01:39.295Z,96747.50
2023-04-10T06:04:12.162Z,96749.97
2023-04-10T06:06:46.435Z,96754.25
2023-04-10T06:09:19.082Z,96747.69
2023-04-10T06:11:52.068Z,96747.97
2023-04-10T06:14:24.778Z,96746.69
2023-04-10T06:16:57.772Z,96748.81
2023-04-10T06:19:30.373Z,96753.13
2023-04-10T06:22:04.504Z,96764.31
2023-04-10T06:24:37.137Z,96758.22
2023-04-10T06:27:10.183Z,96753.75
2023-04-10T06:29:42.809Z,96749.03
2023-04-10T06:32:15.536Z,96750.94
2023-04-10T06:34:48.196Z,96742.78
2023-04-10T06:37:28.288Z,96742.88
2023-04-10T06:40:05.377Z,96744.75
2023-04-10T06:42:38.528Z,96741.13
2023-04-10T06:45:11.633Z,96742.00
2023-04-10T06:47:44.674Z,96745.53
2023-04-10T06:50:17.383Z,96747.22
2023-04-10T06:52:53.362Z,96741.97
2023-04-10T06:55:26.131Z,96755.84
2023-04-10T06:57:58.931Z,96743.72
2023-04-10T07:00:31.858Z,96739.72
2023-04-10T07:03:04.803Z,96731.31
2023-04-10T07:05:38.635Z,96738.59
2023-04-10T07:08:14.319Z,96732.53
2023-04-10T07:10:46.954Z,96730.72
2023-04-10T07:13:19.605Z,96732.97
2023-04-10T07:15:52.472Z,96727.69
2023-04-10T07:18:25.323Z,96732.78
2023-04-10T07:20:58.010Z,96731.72
2023-04-10T07:23:32.344Z,96731.94
2023-04-10T07:26:05.249Z,96729.81
2023-04-10T07:28:38.384Z,96732.34
2023-04-10T07:31:11.090Z,96728.34
2023-04-10T07:33:43.777Z,96733.13
2023-04-10T07:36:16.763Z,96734.41
2023-04-10T07:38:51.370Z,96730.03
2023-04-10T07:41:24.157Z,96726.78
2023-04-10T07:43:56.902Z,96731.50
2023-04-10T07:46:29.636Z,96730.88
2023-04-10T07:49:03.103Z,96729.50
2023-04-10T07:51:36.207Z,96735.75
2023-04-10T07:54:10.607Z,96736.25
2023-04-10T07:56:43.774Z,96728.69
2023-04-10T07:59:16.528Z,96728.03
2023-04-10T08:01:49.263Z,96727.09
2023-04-10T08:04:22.477Z,96732.09
2023-04-10T08:06:55.250Z,96734.13
2023-04-10T08:09:29.423Z,96720.41
2023-04-10T08:12:02.255Z,96730.47
2023-04-10T08:14:34.969Z,96737.03
2023-04-10T08:17:14.474Z,96736.34
2023-04-10T08:19:47.186Z,96742.13
2023-04-10T08:22:19.856Z,96730.75
2023-04-10T08:24:53.984Z,96730.22
2023-04-10T08:27:26.617Z,96737.59
2023-04-10T08:29:59.630Z,96726.81
2023-04-10T08:32:32.450Z,96727.88
2023-04-10T08:35:05.511Z,96721.34
2023-04-10T08:37:38.619Z,96726.63
2023-04-10T08:40:13.763Z,96725.31
2023-04-10T08:42:46.440Z,96710.59
2023-04-10T08:45:19.288Z,96711.34
2023-04-10T08:47:53.343Z,96716.97
2023-04-10T08:50:26.265Z,96713.09
2023-04-10T08:53:01.334Z,96719.47
2023-04-10T08:55:36.031Z,96722.53
2023-04-10T08:58:09.174Z,96712.06
2023-04-10T09:00:41.900Z,96723.47
2023-04-10T09:03:17.626Z,96725.28
2023-04-10T09:05:50.370Z,96724.75
2023-04-10T09:08:23.027Z,96727.69
2023-04-10T09:10:57.249Z,96727.59
2023-04-10T09:13:36.974Z,96729.72
2023-04-10T09:16:10.629Z,96729.94
2023-04-10T09:18:47.253Z,96725.13
2023-04-10T09:21:21.144Z,96724.16
2023-04-10T09:24:01.856Z,96712.38
2023-04-10T09:26:36.039Z,96702.22
2023-04-10T09:29:11.049Z,96703.88
2023-04-10T09:31:44.441Z,96697.53
2023-04-10T09:34:18.103Z,96693.50
2023-04-10T09:36:55.143Z,96699.53
2023-04-10T09:39:34.348Z,96692.34
2023-04-10T09:42:08.564Z,96691.81
2023-04-10T09:44:41.758Z,96698.97
2023-04-10T09:47:18.677Z,96696.13
2023-04-10T09:49:52.870Z,96689.84
2023-04-10T09:52:27.502Z,96686.13
2023-04-10T09:55:01.040Z,96694.38
2023-04-10T09:57:35.586Z,96691.91
2023-04-10T10:00:09.542Z,96680.56
2023-04-10T10:02:42.726Z,96681.88
2023-04-10T10:05:15.760Z,96670.91
2023-04-10T10:07:48.621Z,96673.00
2023-04-10T10:10:21.659Z,96664.31
2023-04-10T10:12:58.467Z,96664.84
2023-04-10T10:15:36.047Z,96660.13
2023-04-10T10:18:12.281Z,96655.72
2023-04-10T10:20:46.476Z,96642.44
2023-04-10T10:23:20.666Z,96638.00
2023-04-10T10:25:53.770Z,96635.50
2023-04-10T10:28:29.218Z,96633.41
2023-04-10T10:31:02.456Z,96635.56
2023-04-10T10:33:37.785Z,96623.50
2023-04-10T10:36:11.483Z,96622.16
2023-04-10T10:38:49.264Z,96617.34
2023-04-10T10:41:26.413Z,96618.38
2023-04-10T10:44:07.922Z,96612.00
2023-04-10T10:46:43.588Z,96609.22
2023-04-10T10:49:16.313Z,96601.69
2023-04-10T10:51:49.776Z,96598.44
2023-04-10T10:54:29.035Z,96592.47
2023-04-10T10:57:02.611Z,96580.31
2023-04-10T10:59:53.722Z,96575.91
2023-04-10T11:02:27.970Z,96564.09
2023-04-10T11:05:00.970Z,96569.69
2023-04-10T11:07:48.491Z,96566.41
2023-04-10T11:10:41.586Z,96563.47
2023-04-10T11:13:18.147Z,96573.31
2023-04-10T11:15:52.758Z,96572.69
2023-04-10T11:18:40.540Z,96576.25
2023-04-10T11:21:15.054Z,96573.66
2023-04-10T11:24:04.057Z,96566.03
2023-04-10T11:26:41.835Z,96566.56
2023-04-10T11:29:33.526Z,96572.03
2023-04-10T11:32:06.323Z,96568.22
2023-04-10T11:34:44.844Z,96559.81
2023-04-10T11:37:24.980Z,96559.50
2023-04-10T11:40:04.611Z,96556.09
2023-04-10T11:42:38.008Z,96558.50
2023-04-10T11:45:26.763Z,96550.84
2023-04-10T11:47:59.488Z,96548.22
2023-04-10T11:50:36.073Z,96551.41
2023-04-10T11:53:20.367Z,96544.53
2023-04-10T11:55:53.005Z,96551.19
2023-04-10T11:58:26.528Z,96548.19
2023-04-10T12:00:59.913Z,96556.31
2023-04-10T12:03:36.287Z,96550.53
2023-04-10T12:06:11.602Z,96551.75
2023-04-10T12:08:47.800Z,96547.13
2023-04-10T12:11:21.464Z,96543.25
2023-04-10T12:13:54.812Z,96537.84
2023-04-10T12:16:27.862Z,96535.53
2023-04-10T12:19:01.009Z,96524.72
2023-04-10T12:21:34.310Z,96527.13
2023-04-10T12:24:08.495Z,96523.66
2023-04-10T12:26:48.293Z,96510.97
2023-04-10T12:29:20.972Z,96499.78
2023-04-10T12:31:53.618Z,96510.28
2023-04-10T12:34:26.664Z,96513.06
2023-04-10T12:36:59.269Z,96509.22
2023-04-10T12:39:33.421Z,96512.81
2023-04-10T12:42:13.341Z,96507.03
2023-04-10T12:44:52.778Z,96505.53
2023-04-10T12:47:26.382Z,96495.94
2023-04-10T12:50:08.328Z,96490.59
2023-04-10T12:52:41.770Z,96485.66
2023-04-10T12:55:17.022Z,96488.44
2023-04-10T12:57:51.751Z,96486.56
2023-04-10T13:00:25.090Z,96483.13
2023-04-10T13:02:57.963Z,96471.22
2023-04-10T13:05:31.194Z,96462.78
2023-04-10T13:08:03.823Z,96470.56
2023-04-10T13:10:38.415Z,96471.81
2023-04-10T13:13:13.071Z,96473.44
2023-04-10T13:15:45.713Z,96473.13
2023-04-10T13:18:18.506Z,96463.47
2023-04-10T13:20:51.469Z,96465.06
2023-04-10T13:23:24.112Z,96461.97
2023-04-10T13:26:00.989Z,96460.06
2023-04-10T13:28:33.587Z,96454.28
2023-04-10T13:31:06.281Z,96450.38
2023-04-10T13:33:39.003Z,96451.16
2023-04-10T13:36:12.086Z,96446.88
2023-04-10T13:38:44.833Z,96448.00
2023-04-10T13:41:18.983Z,96437.50
2023-04-10T13:43:51.752Z,96437.47
2023-04-10T13:46:24.605Z,96434.31
2023-04-10T13:48:58.313Z,96429.63
2023-04-10T13:51:31.757Z,96429.59
2023-04-10T13:54:04.995Z,96428.75
2023-04-10T13:56:39.231Z,96433.38
2023-04-10T13:59:12.066Z,96432.22
2023-04-10T14:01:44.752Z,96426.34
2023-04-10T14:04:17.426Z,96428.28
2023-04-10T14:06:51.630Z,96422.44
2023-04-10T14:09:24.623Z,96422.00
2023-04-10T14:11:59.059Z,96421.94
2023-04-10T14:14:31.763Z,96418.03
2023-04-10T14:17:04.481Z,96410.66
2023-04-10T14:19:39.044Z,96411.81
2023-04-10T14:22:11.738Z,96409.81
2023-04-10T14:24:44.502Z,96415.25
2023-04-10T14:27:18.569Z,96410.19
2023-04-10T14:29:55.018Z,96409.03
2023-04-10T14:32:27.933Z,96415.19
2023-04-10T14:35:00.696Z,96406.63
2023-04-10T14:37:33.512Z,96407.78
2023-04-10T14:40:06.819Z,96407.41
2023-04-10T14:42:40.983Z,96412.78
2023-04-10T14:45:13.816Z,96406.94
2023-04-10T14:47:47.520Z,96403.06
2023-04-10T14:50:20.476Z,96393.72
2023-04-10T14:52:53.195Z,96394.88
2023-04-10T14:55:25.891Z,96389.84
2023-04-10T14:58:00.035Z,96402.28
2023-04-10T15:00:33.330Z,96394.13
2023-04-10T15:03:06.751Z,96380.56
2023-04-10T15:05:39.481Z,96379.41
2023-04-10T15:08:12.265Z,96380.63
2023-04-10T15:10:44.950Z,96380.63
2023-04-10T15:13:19.742Z,96366.25
2023-04-10T15:15:52.409Z,96361.63
2023-04-10T15:18:25.607Z,96375.66
2023-04-10T15:20:58.359Z,96371.44
2023-04-10T15:23:31.188Z,96362.50
2023-04-10T15:26:03.876Z,96353.59
2023-04-10T15:28:38.308Z,96357.13
2023-04-10T15:31:11.543Z,96359.06
2023-04-10T15:33:44.497Z,96349.38
2023-04-10T15:36:17.206Z,96355.22
2023-04-10T15:38:50.270Z,96345.91
2023-04-10T15:41:23.347Z,96347.47
2023-04-10T15:43:57.671Z,96348.66
2023-04-10T15:46:32.521Z,96340.53
2023-04-10T15:49:05.426Z,96346.34
2023-04-10T15:51:38.252Z,96342.88
2023-04-10T15:54:11.259Z,96344.09
2023-04-10T15:56:43.934Z,96335.16
2023-04-10T15:59:18.593Z,96333.63
2023-04-10T16:01:51.760Z,96329.38
2023-04-10T16:04:24.719Z,96328.25
2023-04-10T16:06:57.440Z,96327.13
2023-04-10T16:09:30.267Z,96324.81
2023-04-10T16:12:03.223Z,96327.97
2023-04-10T16:14:37.328Z,96330.28
2023-04-10T16:17:10.135Z,96330.72
2023-04-10T16:19:42.849Z,96324.91
2023-04-10T16:22:15.602Z,96323.75
2023-04-10T16:24:48.595Z,96321.06
2023-04-10T16:27:21.224Z,96326.13
2023-04-10T16:29:55.490Z,96325.38
2023-04-10T16:32:30.346Z,96321.91
2023-04-10T16:35:04.489Z,96328.53
2023-04-10T16:37:37.394Z,96322.72
2023-04-10T16:40:12.801Z,96321.56
2023-04-10T16:42:45.447Z,96321.59
2023-04-10T16:45:20.164Z,96313.06
2023-04-10T16:47:52.788Z,96309.56
2023-04-10T16:50:25.415Z,96301.03
2023-04-10T16:52:59.330Z,96304.16
2023-04-10T16:55:32.244Z,96302.63
2023-04-10T16:58:04.967Z,96305.34
2023-04-10T17:00:39.179Z,96307.66
2023-04-10T17:03:11.839Z,96304.16
2023-04-10T17:05:44.679Z,96307.28
2023-04-10T17:08:17.332Z,96309.97
2023-04-10T17:10:50.283Z,96304.16
2023-04-10T17:13:22.953Z,96307.97
2023-04-10T17:15:57.020Z,96303.72
2023-04-10T17:18:29.818Z,96308.31
2023-04-10T17:21:02.532Z,96301.72
2023-04-10T17:23:35.178Z,96298.59
2023-04-10T17:26:08.174Z,96303.59
2023-04-10T17:28:40.898Z,96295.47
2023-04-10T17:31:15.472Z,96290.41
2023-04-10T17:33:48.267Z,96289.97
2023-04-10T17:36:21.019Z,96289.16
2023-04-10T17:38:54.279Z,96289.50
2023-04-10T17:41:27.308Z,96288.69
2023-04-10T17:43:59.946Z,96290.56
2023-04-10T17:46:34.090Z,96276.59
2023-04-10T17:49:06.743Z,96277.72
2023-04-10T17:51:40.786Z,96279.63
2023-04-10T17:54:13.475Z,96280.31
2023-04-10T17:56:46.263Z,96286.44
2023-04-10T17:59:18.912Z,96284.44
2023-04-10T18:01:53.380Z,96289.78
2023-04-10T18:04:26.295Z,96293.94
2023-04-10T18:06:59.018Z,96283.41
2023-04-10T18:09:31.713Z,96281.81
2023-04-10T18:12:04.485Z,96278.25
2023-04-10T18:14:37.268Z,96270.84
2023-04-10T18:17:11.376Z,96272.31
2023-04-10T18:19:44.008Z,96275.75
2023-04-10T18:22:16.768Z,96262.13
2023-04-10T18:24:49.769Z,96269.03
2023-04-10T18:27:22.502Z,96259.31
2023-04-10T18:29:57.555Z,96263.50
2023-04-10T18:32:31.582Z,96272.28
2023-04-10T18:35:04.615Z,96274.91
2023-04-10T18:37:37.483Z,96272.91
2023-04-10T18:40:16.435Z,96263.91
2023-04-10T18:42:49.757Z,96263.47
2023-04-10T18:45:22.530Z,96259.88
2023-04-10T18:47:56.752Z,96273.31
2023-04-10T18:50:29.491Z,96277.84
2023-04-10T18:53:02.193Z,96273.50
2023-04-10T18:55:34.791Z,96282.63
2023-04-10T18:58:07.452Z,96287.56
2023-04-10T19:00:40.103Z,96285.50
2023-04-10T19:03:14.358Z,96280.00
2023-04-10T19:05:47.949Z,96284.53
2023-04-10T19:08:20.664Z,96284.81
2023-04-10T19:10:53.372Z,96278.53
2023-04-10T19:13:26.124Z,96277.69
2023-04-10T19:15:58.766Z,96272.63
2023-04-10T19:18:33.056Z,96276.03
2023-04-10T19:21:05.957Z,96279.78
2023-04-10T19:23:38.629Z,96280.50
2023-04-10T19:26:11.353Z,96291.22
2023-04-10T19:28:44.169Z,96301.16
2023-04-10T19:31:16.887Z,96304.22
2023-04-10T19:33:51.313Z,96315.34
2023-04-10T19:36:23.925Z,96315.31
2023-04-10T19:38:57.532Z,96328.00
2023-04-10T19:41:30.508Z,96330.69
2023-04-10T19:44:03.222Z,96322.53
2023-04-10T19:46:35.966Z,96323.66
2023-04-10T19:49:10.125Z,96314.84
2023-04-10T19:51:43.181Z,96314.06
2023-04-10T19:54:15.892Z,96301.72
2023-04-10T19:56:48.621Z,96304.41
2023-04-10T19:59:21.265Z,96301.72
2023-04-10T20:01:54.016Z,96302.41
2023-04-10T20:04:28.392Z,96310.50
2023-04-10T20:07:01.307Z,96315.47
2023-04-10T20:09:34.311Z,96315.09
2023-04-10T20:12:07.190Z,96306.59
2023-04-10T20:14:39.875Z,96324.31
2023-04-10T20:17:12.855Z,96318.94
2023-04-10T20:19:47.147Z,96320.84
2023-04-10T20:22:19.769Z,96318.59
2023-04-10T20:24:52.575Z,96319.72
2023-04-10T20:27:25.523Z,96325.53
2023-04-10T20:29:58.259Z,96331.69
2023-04-10T20:32:30.963Z,96338.28
2023-04-10T20:35:05.400Z,96335.22
2023-04-10T20:37:38.099Z,96334.50
2023-04-10T20:40:11.108Z,96329.19
2023-04-10T20:42:43.969Z,96337.69
2023-04-10T20:45:16.769Z,96340.81
2023-04-10T20:47:49.569Z,96345.91
2023-04-10T20:50:23.724Z,96347.09
2023-04-10T20:52:56.436Z,96354.47
2023-04-10T20:55:29.102Z,96366.06
2023-04-10T20:58:02.059Z,96352.28
2023-04-10T21:00:35.259Z,96345.41
2023-04-10T21:03:08.188Z,96340.84
2023-04-10T21:05:42.673Z,96338.91
2023-04-10T21:08:15.642Z,96346.28
2023-04-10T21:10:51.414Z,96338.97
2023-04-10T21:13:24.046Z,96321.66
2023-04-10T21:15:56.700Z,96330.53
2023-04-10T21:18:29.489Z,96336.34
2023-04-10T21:21:03.595Z,96355.59
2023-04-10T21:23:36.339Z,96349.41
2023-04-10T21:26:09.047Z,96354.44
2023-04-10T21:28:41.646Z,96347.84
2023-04-10T21:31:14.452Z,96344.81
2023-04-10T21:33:47.398Z,96330.53
2023-04-10T21:36:21.846Z,96336.72
2023-04-10T21:38:54.796Z,96347.50
2023-04-10T21:41:27.811Z,96342.47
2023-04-10T21:44:00.944Z,96335.94
2023-04-10T21:46:33.816Z,96347.50
2023-04-10T21:49:06.477Z,96341.31
2023-04-10T21:51:41.398Z,96342.88
2023-04-10T21:54:14.094Z,96329.03
2023-04-10T21:56:46.822Z,96312.88
2023-04-10T21:59:19.535Z,96313.66
2023-04-10T22:01:52.542Z,96310.56
2023-04-10T22:04:25.339Z,96300.91
2023-04-10T22:06:59.489Z,96289.78
2023-04-10T22:09:32.136Z,96286.72
2023-04-10T22:12:04.929Z,96280.91
2023-04-10T22:14:37.857Z,96281.69
2023-04-10T22:17:11.045Z,96281.69
2023-04-10T22:19:43.917Z,96272.44
2023-04-10T22:22:19.291Z,96260.47
2023-04-10T22:24:53.567Z,96256.25
2023-04-10T22:27:26.285Z,96245.81
2023-04-10T22:32:34.855Z,96238.88
2023-04-10T22:35:08.461Z,96236.91
2023-04-10T22:37:44.455Z,96236.91
2023-04-10T22:40:17.188Z,96226.47
2023-04-10T22:42:49.928Z,96223.00
2023-04-10T22:45:22.825Z,96218.38
2023-04-10T22:47:55.688Z,96218.03
2023-04-10T22:50:28.364Z,96208.81
2023-04-10T22:53:02.481Z,96212.28
2023-04-10T22:55:35.369Z,96222.34
2023-04-10T22:58:08.463Z,96216.97
2023-04-10T23:00:41.094Z,96217.34
2023-04-10T23:03:13.811Z,96210.03
2023-04-10T23:05:47.043Z,96213.50
2023-04-10T23:08:21.145Z,96217.00
2023-04-10T23:10:53.790Z,96211.59
2023-04-10T23:13:26.745Z,96219.69
2023-04-10T23:15:59.514Z,96225.84
2023-04-10T23:18:32.223Z,96217.34
2023-04-10T23:21:05.638Z,96218.91
2023-04-10T23:23:39.774Z,96207.41
2023-04-10T23:26:12.540Z,96198.53
2023-04-10T23:28:45.498Z,96182.78
2023-04-10T23:31:18.429Z,96168.16
2023-04-10T23:33:51.149Z,96159.72
2023-04-10T23:36:23.789Z,96147.00
2023-04-10T23:38:57.857Z,96137.75
2023-04-10T23:41:30.537Z,96130.06
2023-04-10T23:44:03.441Z,96115.44
2023-04-10T23:46:36.261Z,96094.31
2023-04-10T23:49:09.246Z,96087.00
2023-04-10T23:51:41.957Z,96083.16
2023-04-10T23:54:16.094Z,96094.72
2023-04-10T23:56:48.776Z,96097.78
2023-04-10T23:59:21.586Z,96094.31
